Flight Track Log - Related Links

Times and Time Zones

All times are in EDT time to prevent confusion due to time zone crossing. See the N431DB flight status page for this flight to view local times or setup timezone preferences in your user account.

Time Position Orientation Groundspeed Altitude Reporting Facility
EDT Latitude Longitude Course Direction KTS MPH feet Rate Location/Type
Tue 09:27:06 PM 44.9742 -93.2542 197° South 127 146 6,000  Level Minneapolis Center
Tue 09:28:07 PM 44.9006 -93.2864 197° South 101 116 3,100 -1,024 Descending Minneapolis Center
Tue 09:29:09 PM 44.8992 -93.3261 267° West 102 117 3,900 439 Climbing Minneapolis Center
Tue 09:30:10 PM 44.9003 -93.3742 272° West 122 140 4,000 49 Climbing Minneapolis Center
Tue 09:31:12 PM 44.9025 -93.4306 273° West 142 163 4,000  Level Minneapolis Center
Tue 09:32:14 PM 44.9072 -93.4872 277° West 146 168 4,000  Level Minneapolis Center
Tue 09:33:15 PM 44.9164 -93.5544 281° West 146 168 4,000 -49 Level Minneapolis Center
Tue 09:34:17 PM 44.9239 -93.6106 281° West 146 168 3,900  Descending Minneapolis Center
Tue 09:35:18 PM 44.9319 -93.6667 281° West 146 168 4,000 146 Climbing Minneapolis Center
Tue 09:36:20 PM 44.9386 -93.7217 280° West 143 165 4,200 439 Climbing Minneapolis Center
Tue 09:37:21 PM 44.9450 -93.7711 280° West 131 151 4,900 634 Climbing Minneapolis Center
Tue 09:38:23 PM 44.9508 -93.8189 280° West 125 144 5,500 537 Climbing Minneapolis Center
Tue 09:39:24 PM 44.9569 -93.8658 280° West 122 140 6,000 195 Climbing Minneapolis Center
Tue 09:40:26 PM 44.9642 -93.9183 281° West 137 158 5,900 -49 Descending Minneapolis Center
Tue 09:41:27 PM 44.9722 -93.9875 279° West 147 169 5,900  Level Minneapolis Center
Tue 09:42:29 PM 44.9794 -94.0439 280° West 147 169 5,900  Level Minneapolis Center
Tue 09:43:30 PM 44.9864 -94.0997 280° West 146 168 5,900  Level Minneapolis Center
Tue 09:44:31 PM 44.9944 -94.1578 281° West 149 171 5,900  Level Minneapolis Center
Tue 09:45:33 PM 45.0019 -94.2153 280° West 150 173 5,900 49 Level Minneapolis Center
Tue 09:46:34 PM 45.0100 -94.2719 281° West 148 170 6,000 49 Climbing Minneapolis Center
Tue 09:47:35 PM 45.0172 -94.3294 280° West 148 170 6,000 -49 Level Minneapolis Center
Tue 09:48:37 PM 45.0239 -94.3867 279° West 150 173 5,900 -222 Descending Minneapolis Center
Tue 09:49:50 PM 45.0339 -94.4578 281° West 153 176 5,500 -489 Descending Minneapolis Center
Tue 09:50:52 PM 45.0433 -94.5267 281° West 149 171 4,800 -578 Descending Minneapolis Center
Tue 09:52:05 PM 45.0511 -94.5819 281° West 142 163 4,200 -358 Descending Minneapolis Center
Tue 09:53:06 PM 45.0600 -94.6503 280° West 140 161 4,000 -146 Descending Minneapolis Center
Tue 09:54:08 PM 45.0647 -94.7058 277° West 142 163 3,900 -49 Descending Minneapolis Center
Tue 09:55:09 PM 45.0714 -94.7575 280° West 138 159 3,900  Level Minneapolis Center
Tue 09:57:00 PM 45.0747 -94.8585 279° West  Level FlightAware Approximate
Tue 10:04:00 PM 45.1167 -95.1167 325° Northwest  Level FlightAware Approximate
Tue 10:05:00 PM 45.1170 -95.1293 325° Northwest  Level Estimated
Tue 10:06:00 PM 45.1170 -95.1293 325° Northwest  Level Estimated
Tue 10:07:00 PM 45.1170 -95.1293 325° Northwest  Level Estimated

Login

Don't have an account? Register now (free) for customized features, flight alerts, and more!